KGCK

Garden City Regional Airport

Garden City, Kansas, USA
METAR KGCK 230835Z AUTO 20011KT 9SM -RA SCT038 BKN047 BKN075 20/15 A3001 RMK AO2 WSHFT 0745 LTG DSNT SW RAB34 TSE14 P0000 T02000150
Observed Flight Rules
May-23 @ 08:35 UTC (8 minutes ago) Visual Flight Rules
Wind Visibility Clouds Conditions
200° at 11 knots 9 miles
  • Scattered at 3,800' AGL
  • Broken at 4,700' AGL
  • Broken at 7,500' AGL
  • Light Rain
Temperatures Readings Precipitation
Current 20°C / 68°F
Dewpoint 15°C / 59°F
Humidity 73%
Altimeter 30.01" Hg
Pressure 1016 hPa
Elevation 877
Current Rain 0.005
METAR KGCK 230835Z AUTO 20011KT 9SM -RA SCT038 BKN047 BKN075 20/15 A3001 RMK AO2 WSHFT 0745 LTG DSNT SW RAB34 TSE14 P0000 T02000150
Observed Flight Rules
May-23 @ 08:35 UTC
(8 minutes ago)
VFR
Wind Visibility
200° at 11 knots 9 miles
Clouds
  • Scattered at 3,800' AGL
  • Broken at 4,700' AGL
  • Broken at 7,500' AGL
Conditions
  • Light Rain
Temperature Dewpoint
20°C / 68°F 15°C / 59°F
Humidity Altimeter Pressure
73% 30.01" Hg 1016 hPa
Current Rain
0.005